sensor_id;sensor_type;location;lat;lon;timestamp;temperature;humidity
43995;DHT22;51687;52.160;5.298;2023-03-19T00:00:41;17.00;59.80
43995;DHT22;51687;52.160;5.298;2023-03-19T00:03:07;17.00;59.60
43995;DHT22;51687;52.160;5.298;2023-03-19T00:05:34;16.90;59.70
43995;DHT22;51687;52.160;5.298;2023-03-19T00:08:01;16.90;59.90
43995;DHT22;51687;52.160;5.298;2023-03-19T00:10:28;16.80;60.00
43995;DHT22;51687;52.160;5.298;2023-03-19T00:12:54;16.80;60.00
43995;DHT22;51687;52.160;5.298;2023-03-19T00:15:22;16.80;60.20
43995;DHT22;51687;52.160;5.298;2023-03-19T00:17:49;16.80;60.20
43995;DHT22;51687;52.160;5.298;2023-03-19T00:20:16;16.80;60.60
43995;DHT22;51687;52.160;5.298;2023-03-19T00:22:43;16.70;60.50
43995;DHT22;51687;52.160;5.298;2023-03-19T00:25:10;16.70;60.50
43995;DHT22;51687;52.160;5.298;2023-03-19T00:27:37;16.70;60.70
43995;DHT22;51687;52.160;5.298;2023-03-19T00:30:05;16.70;60.70
43995;DHT22;51687;52.160;5.298;2023-03-19T00:32:32;16.70;60.90
43995;DHT22;51687;52.160;5.298;2023-03-19T00:34:59;16.70;61.10
43995;DHT22;51687;52.160;5.298;2023-03-19T00:37:26;16.70;61.00
43995;DHT22;51687;52.160;5.298;2023-03-19T00:39:54;16.70;61.10
43995;DHT22;51687;52.160;5.298;2023-03-19T00:42:21;16.60;61.20
43995;DHT22;51687;52.160;5.298;2023-03-19T00:44:47;16.60;61.30
43995;DHT22;51687;52.160;5.298;2023-03-19T00:47:14;16.60;61.30
43995;DHT22;51687;52.160;5.298;2023-03-19T00:49:41;16.60;61.50
43995;DHT22;51687;52.160;5.298;2023-03-19T00:52:08;16.60;61.50
43995;DHT22;51687;52.160;5.298;2023-03-19T00:54:35;16.50;61.50
43995;DHT22;51687;52.160;5.298;2023-03-19T00:57:01;16.50;61.60
43995;DHT22;51687;52.160;5.298;2023-03-19T00:59:28;16.50;61.60
43995;DHT22;51687;52.160;5.298;2023-03-19T01:01:55;16.50;61.60
43995;DHT22;51687;52.160;5.298;2023-03-19T01:04:22;16.40;61.70
43995;DHT22;51687;52.160;5.298;2023-03-19T01:06:52;16.40;61.70
43995;DHT22;51687;52.160;5.298;2023-03-19T01:09:18;16.40;61.70
43995;DHT22;51687;52.160;5.298;2023-03-19T01:11:45;16.50;61.60
43995;DHT22;51687;52.160;5.298;2023-03-19T01:14:13;16.40;61.60
43995;DHT22;51687;52.160;5.298;2023-03-19T01:16:41;16.40;61.50
43995;DHT22;51687;52.160;5.298;2023-03-19T01:19:08;16.40;61.50
43995;DHT22;51687;52.160;5.298;2023-03-19T01:21:35;16.40;61.50
43995;DHT22;51687;52.160;5.298;2023-03-19T01:24:02;16.40;61.60
43995;DHT22;51687;52.160;5.298;2023-03-19T01:26:28;16.40;61.50
43995;DHT22;51687;52.160;5.298;2023-03-19T01:28:56;16.40;61.50
43995;DHT22;51687;52.160;5.298;2023-03-19T01:31:23;16.40;61.60
43995;DHT22;51687;52.160;5.298;2023-03-19T01:33:50;16.40;61.50
43995;DHT22;51687;52.160;5.298;2023-03-19T01:36:17;16.40;61.50
43995;DHT22;51687;52.160;5.298;2023-03-19T01:38:43;16.40;61.60
43995;DHT22;51687;52.160;5.298;2023-03-19T01:41:10;16.40;61.60
43995;DHT22;51687;52.160;5.298;2023-03-19T01:43:37;16.40;61.70
43995;DHT22;51687;52.160;5.298;2023-03-19T01:46:22;16.40;61.60
43995;DHT22;51687;52.160;5.298;2023-03-19T01:48:54;16.40;61.90
43995;DHT22;51687;52.160;5.298;2023-03-19T01:51:25;16.40;61.80
43995;DHT22;51687;52.160;5.298;2023-03-19T01:53:56;16.40;61.90
43995;DHT22;51687;52.160;5.298;2023-03-19T01:56:36;16.40;61.80
43995;DHT22;51687;52.160;5.298;2023-03-19T01:59:18;16.40;61.90
43995;DHT22;51687;52.160;5.298;2023-03-19T02:01:53;16.40;61.90
43995;DHT22;51687;52.160;5.298;2023-03-19T02:04:24;16.40;62.10
43995;DHT22;51687;52.160;5.298;2023-03-19T02:06:56;16.40;62.00
43995;DHT22;51687;52.160;5.298;2023-03-19T02:09:25;16.40;62.00
43995;DHT22;51687;52.160;5.298;2023-03-19T02:11:53;16.40;61.90
43995;DHT22;51687;52.160;5.298;2023-03-19T02:24:21;16.40;61.90
43995;DHT22;51687;52.160;5.298;2023-03-19T02:26:51;16.30;61.90
43995;DHT22;51687;52.160;5.298;2023-03-19T02:29:18;16.30;62.00
43995;DHT22;51687;52.160;5.298;2023-03-19T02:31:44;16.30;62.10
43995;DHT22;51687;52.160;5.298;2023-03-19T02:36:51;16.30;62.20
43995;DHT22;51687;52.160;5.298;2023-03-19T02:39:26;16.20;62.20
43995;DHT22;51687;52.160;5.298;2023-03-19T02:41:55;16.20;62.30
43995;DHT22;51687;52.160;5.298;2023-03-19T02:44:23;16.20;62.30
43995;DHT22;51687;52.160;5.298;2023-03-19T02:46:50;16.20;62.10
43995;DHT22;51687;52.160;5.298;2023-03-19T02:49:17;16.20;62.20
43995;DHT22;51687;52.160;5.298;2023-03-19T02:51:44;16.20;62.30
43995;DHT22;51687;52.160;5.298;2023-03-19T02:54:11;16.20;62.60
43995;DHT22;51687;52.160;5.298;2023-03-19T04:42:26;16.20;62.60
43995;DHT22;51687;52.160;5.298;2023-03-19T04:44:53;15.90;60.70
43995;DHT22;51687;52.160;5.298;2023-03-19T04:47:20;15.80;60.50
43995;DHT22;51687;52.160;5.298;2023-03-19T04:49:46;15.80;60.50
43995;DHT22;51687;52.160;5.298;2023-03-19T04:52:14;15.80;60.40
43995;DHT22;51687;52.160;5.298;2023-03-19T04:54:41;15.80;60.10
43995;DHT22;51687;52.160;5.298;2023-03-19T04:57:08;15.70;60.00
43995;DHT22;51687;52.160;5.298;2023-03-19T04:59:34;15.70;60.00
43995;DHT22;51687;52.160;5.298;2023-03-19T05:02:01;15.70;59.90
43995;DHT22;51687;52.160;5.298;2023-03-19T05:04:28;15.70;59.90
43995;DHT22;51687;52.160;5.298;2023-03-19T05:06:54;15.60;59.70
43995;DHT22;51687;52.160;5.298;2023-03-19T05:14:17;15.60;59.50
43995;DHT22;51687;52.160;5.298;2023-03-19T05:16:43;15.50;59.30
43995;DHT22;51687;52.160;5.298;2023-03-19T05:19:10;15.50;59.30
43995;DHT22;51687;52.160;5.298;2023-03-19T05:21:37;15.50;59.30
43995;DHT22;51687;52.160;5.298;2023-03-19T05:24:04;15.50;59.40
43995;DHT22;51687;52.160;5.298;2023-03-19T05:26:31;15.50;59.80
43995;DHT22;51687;52.160;5.298;2023-03-19T05:28:58;15.40;60.00
43995;DHT22;51687;52.160;5.298;2023-03-19T05:31:25;15.40;59.90
43995;DHT22;51687;52.160;5.298;2023-03-19T05:33:52;15.30;59.90
43995;DHT22;51687;52.160;5.298;2023-03-19T05:36:19;15.30;60.30
43995;DHT22;51687;52.160;5.298;2023-03-19T05:38:46;15.30;60.30
43995;DHT22;51687;52.160;5.298;2023-03-19T05:41:12;15.20;60.50
43995;DHT22;51687;52.160;5.298;2023-03-19T05:43:39;15.20;60.70
43995;DHT22;51687;52.160;5.298;2023-03-19T05:46:06;15.20;60.80
43995;DHT22;51687;52.160;5.298;2023-03-19T05:48:33;15.10;61.10
43995;DHT22;51687;52.160;5.298;2023-03-19T05:55:55;15.10;61.40
43995;DHT22;51687;52.160;5.298;2023-03-19T06:00:48;15.00;62.40
43995;DHT22;51687;52.160;5.298;2023-03-19T06:03:16;14.90;62.60
43995;DHT22;51687;52.160;5.298;2023-03-19T06:05:43;14.90;62.70
43995;DHT22;51687;52.160;5.298;2023-03-19T06:08:10;14.90;62.80
43995;DHT22;51687;52.160;5.298;2023-03-19T06:10:37;14.80;62.70
43995;DHT22;51687;52.160;5.298;2023-03-19T06:13:04;14.90;62.90
43995;DHT22;51687;52.160;5.298;2023-03-19T06:15:31;14.90;62.90
43995;DHT22;51687;52.160;5.298;2023-03-19T06:17:58;14.80;62.90
43995;DHT22;51687;52.160;5.298;2023-03-19T06:20:25;14.80;63.10
43995;DHT22;51687;52.160;5.298;2023-03-19T06:22:52;14.80;63.10
43995;DHT22;51687;52.160;5.298;2023-03-19T06:25:19;14.70;63.10
43995;DHT22;51687;52.160;5.298;2023-03-19T06:27:47;14.70;63.10
43995;DHT22;51687;52.160;5.298;2023-03-19T06:30:13;14.70;63.10
43995;DHT22;51687;52.160;5.298;2023-03-19T06:32:40;14.60;63.10
43995;DHT22;51687;52.160;5.298;2023-03-19T06:35:08;14.50;63.30
43995;DHT22;51687;52.160;5.298;2023-03-19T06:37:34;14.50;63.50
43995;DHT22;51687;52.160;5.298;2023-03-19T06:40:03;14.40;63.70
43995;DHT22;51687;52.160;5.298;2023-03-19T06:42:31;14.40;63.90
43995;DHT22;51687;52.160;5.298;2023-03-19T06:44:57;14.40;63.90
43995;DHT22;51687;52.160;5.298;2023-03-19T06:47:24;14.40;64.10
43995;DHT22;51687;52.160;5.298;2023-03-19T06:49:51;14.40;64.30
43995;DHT22;51687;52.160;5.298;2023-03-19T06:52:18;14.40;64.40
43995;DHT22;51687;52.160;5.298;2023-03-19T06:54:45;14.40;64.30
43995;DHT22;51687;52.160;5.298;2023-03-19T06:57:12;14.40;64.40
43995;DHT22;51687;52.160;5.298;2023-03-19T06:59:38;14.40;64.40
43995;DHT22;51687;52.160;5.298;2023-03-19T07:02:05;14.40;64.20
43995;DHT22;51687;52.160;5.298;2023-03-19T07:04:35;14.40;64.40
43995;DHT22;51687;52.160;5.298;2023-03-19T07:07:02;14.40;64.40
43995;DHT22;51687;52.160;5.298;2023-03-19T07:09:31;14.40;64.40
43995;DHT22;51687;52.160;5.298;2023-03-19T07:12:00;14.40;64.20
43995;DHT22;51687;52.160;5.298;2023-03-19T07:14:27;14.40;64.10
43995;DHT22;51687;52.160;5.298;2023-03-19T07:16:54;14.40;63.90
43995;DHT22;51687;52.160;5.298;2023-03-19T07:19:20;14.40;64.00
43995;DHT22;51687;52.160;5.298;2023-03-19T07:21:47;14.40;64.10
43995;DHT22;51687;52.160;5.298;2023-03-19T07:24:14;14.40;64.10
43995;DHT22;51687;52.160;5.298;2023-03-19T07:26:41;14.40;63.80
43995;DHT22;51687;52.160;5.298;2023-03-19T07:29:09;14.40;64.00
43995;DHT22;51687;52.160;5.298;2023-03-19T07:31:36;14.40;64.10
43995;DHT22;51687;52.160;5.298;2023-03-19T07:34:03;14.40;64.00
43995;DHT22;51687;52.160;5.298;2023-03-19T07:36:30;14.40;64.00
43995;DHT22;51687;52.160;5.298;2023-03-19T07:38:57;14.40;64.00
43995;DHT22;51687;52.160;5.298;2023-03-19T07:41:23;14.50;63.70
43995;DHT22;51687;52.160;5.298;2023-03-19T07:43:50;14.40;63.60
43995;DHT22;51687;52.160;5.298;2023-03-19T07:46:17;14.40;63.80
43995;DHT22;51687;52.160;5.298;2023-03-19T07:48:44;14.40;63.90
43995;DHT22;51687;52.160;5.298;2023-03-19T07:51:10;14.40;63.90
43995;DHT22;51687;52.160;5.298;2023-03-19T07:53:37;14.40;63.80
43995;DHT22;51687;52.160;5.298;2023-03-19T07:56:04;14.40;63.70
43995;DHT22;51687;52.160;5.298;2023-03-19T07:58:31;14.30;63.80
43995;DHT22;51687;52.160;5.298;2023-03-19T08:00:58;14.30;64.10
43995;DHT22;51687;52.160;5.298;2023-03-19T08:03:25;14.20;64.30
43995;DHT22;51687;52.160;5.298;2023-03-19T08:05:54;14.30;64.30
43995;DHT22;51687;52.160;5.298;2023-03-19T08:08:21;14.30;64.20
43995;DHT22;51687;52.160;5.298;2023-03-19T08:10:48;14.30;64.00
43995;DHT22;51687;52.160;5.298;2023-03-19T08:13:17;14.30;64.00
43995;DHT22;51687;52.160;5.298;2023-03-19T08:15:44;14.30;64.00
43995;DHT22;51687;52.160;5.298;2023-03-19T08:18:10;14.30;64.10
43995;DHT22;51687;52.160;5.298;2023-03-19T08:20:37;14.30;64.00
43995;DHT22;51687;52.160;5.298;2023-03-19T08:23:04;14.30;64.00
43995;DHT22;51687;52.160;5.298;2023-03-19T08:25:31;14.30;63.90
43995;DHT22;51687;52.160;5.298;2023-03-19T08:28:01;14.30;63.80
43995;DHT22;51687;52.160;5.298;2023-03-19T08:30:28;14.40;63.70
43995;DHT22;51687;52.160;5.298;2023-03-19T08:32:55;14.40;63.80
43995;DHT22;51687;52.160;5.298;2023-03-19T08:35:22;14.40;64.00
43995;DHT22;51687;52.160;5.298;2023-03-19T08:37:49;14.30;64.10
43995;DHT22;51687;52.160;5.298;2023-03-19T08:40:16;14.30;64.10
43995;DHT22;51687;52.160;5.298;2023-03-19T08:42:42;14.40;64.00
43995;DHT22;51687;52.160;5.298;2023-03-19T08:45:13;14.40;63.90
43995;DHT22;51687;52.160;5.298;2023-03-19T08:47:40;14.40;63.80
43995;DHT22;51687;52.160;5.298;2023-03-19T08:50:09;14.40;63.60
43995;DHT22;51687;52.160;5.298;2023-03-19T08:52:36;14.40;63.80
43995;DHT22;51687;52.160;5.298;2023-03-19T08:55:03;14.40;63.90
43995;DHT22;51687;52.160;5.298;2023-03-19T08:57:31;14.40;64.00
43995;DHT22;51687;52.160;5.298;2023-03-19T08:59:58;14.40;64.40
43995;DHT22;51687;52.160;5.298;2023-03-19T09:02:24;14.40;64.40
43995;DHT22;51687;52.160;5.298;2023-03-19T09:04:51;14.50;64.40
43995;DHT22;51687;52.160;5.298;2023-03-19T09:07:18;14.50;64.50
43995;DHT22;51687;52.160;5.298;2023-03-19T09:09:45;14.50;64.40
43995;DHT22;51687;52.160;5.298;2023-03-19T09:12:14;14.50;64.20
43995;DHT22;51687;52.160;5.298;2023-03-19T09:14:42;14.50;63.90
43995;DHT22;51687;52.160;5.298;2023-03-19T09:17:10;14.50;64.10
43995;DHT22;51687;52.160;5.298;2023-03-19T09:19:37;14.50;64.50
43995;DHT22;51687;52.160;5.298;2023-03-19T09:22:04;14.60;64.30
43995;DHT22;51687;52.160;5.298;2023-03-19T09:24:31;14.60;63.80
43995;DHT22;51687;52.160;5.298;2023-03-19T09:26:58;14.60;63.60
43995;DHT22;51687;52.160;5.298;2023-03-19T09:29:25;14.60;63.60
43995;DHT22;51687;52.160;5.298;2023-03-19T09:31:52;14.60;63.50
43995;DHT22;51687;52.160;5.298;2023-03-19T09:34:19;14.50;63.80
43995;DHT22;51687;52.160;5.298;2023-03-19T09:36:46;14.50;63.90
43995;DHT22;51687;52.160;5.298;2023-03-19T09:39:12;14.50;63.80
43995;DHT22;51687;52.160;5.298;2023-03-19T09:44:26;14.60;63.80
43995;DHT22;51687;52.160;5.298;2023-03-19T09:46:58;14.60;64.10
43995;DHT22;51687;52.160;5.298;2023-03-19T09:49:32;14.60;64.40
43995;DHT22;51687;52.160;5.298;2023-03-19T09:52:38;14.70;64.10
43995;DHT22;51687;52.160;5.298;2023-03-19T09:57:49;14.70;63.90
43995;DHT22;51687;52.160;5.298;2023-03-19T10:00:25;14.70;64.00
43995;DHT22;51687;52.160;5.298;2023-03-19T10:03:00;14.80;64.20
43995;DHT22;51687;52.160;5.298;2023-03-19T10:11:31;14.80;63.60
43995;DHT22;51687;52.160;5.298;2023-03-19T10:14:34;14.80;63.40
43995;DHT22;51687;52.160;5.298;2023-03-19T10:17:05;14.90;63.40
43995;DHT22;51687;52.160;5.298;2023-03-19T10:19:48;15.00;63.20
43995;DHT22;51687;52.160;5.298;2023-03-19T10:22:44;15.00;63.30
43995;DHT22;51687;52.160;5.298;2023-03-19T10:25:19;15.10;63.40
43995;DHT22;51687;52.160;5.298;2023-03-19T10:27:54;15.20;63.00
43995;DHT22;51687;52.160;5.298;2023-03-19T10:30:22;15.20;63.10
43995;DHT22;51687;52.160;5.298;2023-03-19T10:32:56;15.30;63.00
43995;DHT22;51687;52.160;5.298;2023-03-19T10:35:42;15.30;63.20
43995;DHT22;51687;52.160;5.298;2023-03-19T10:38:23;15.30;62.80
43995;DHT22;51687;52.160;5.298;2023-03-19T10:43:53;15.40;62.40
43995;DHT22;51687;52.160;5.298;2023-03-19T10:46:20;15.40;62.60
43995;DHT22;51687;52.160;5.298;2023-03-19T10:48:47;15.40;62.30
43995;DHT22;51687;52.160;5.298;2023-03-19T10:51:22;15.40;62.30
43995;DHT22;51687;52.160;5.298;2023-03-19T10:53:52;15.40;62.20
43995;DHT22;51687;52.160;5.298;2023-03-19T10:56:22;15.40;62.00
43995;DHT22;51687;52.160;5.298;2023-03-19T10:59:01;15.40;62.20
43995;DHT22;51687;52.160;5.298;2023-03-19T11:01:38;15.50;62.50
43995;DHT22;51687;52.160;5.298;2023-03-19T11:04:26;15.50;62.40
43995;DHT22;51687;52.160;5.298;2023-03-19T11:07:01;15.50;62.10
43995;DHT22;51687;52.160;5.298;2023-03-19T11:09:37;15.50;62.10
43995;DHT22;51687;52.160;5.298;2023-03-19T11:14:47;15.50;62.10
43995;DHT22;51687;52.160;5.298;2023-03-19T11:17:22;15.50;62.10
43995;DHT22;51687;52.160;5.298;2023-03-19T11:19:55;15.40;62.20
43995;DHT22;51687;52.160;5.298;2023-03-19T11:22:28;15.40;62.20
43995;DHT22;51687;52.160;5.298;2023-03-19T11:25:28;15.40;62.30
43995;DHT22;51687;52.160;5.298;2023-03-19T11:28:04;15.40;62.60
43995;DHT22;51687;52.160;5.298;2023-03-19T11:30:39;15.40;62.40
43995;DHT22;51687;52.160;5.298;2023-03-19T11:36:11;15.40;62.70
43995;DHT22;51687;52.160;5.298;2023-03-19T11:39:08;15.40;63.00
43995;DHT22;51687;52.160;5.298;2023-03-19T11:41:48;15.40;62.40
43995;DHT22;51687;52.160;5.298;2023-03-19T11:44:45;15.40;62.40
43995;DHT22;51687;52.160;5.298;2023-03-19T11:47:27;15.30;62.30
43995;DHT22;51687;52.160;5.298;2023-03-19T11:50:39;15.30;62.40
43995;DHT22;51687;52.160;5.298;2023-03-19T11:53:18;15.30;62.50
43995;DHT22;51687;52.160;5.298;2023-03-19T11:55:55;15.30;62.20
43995;DHT22;51687;52.160;5.298;2023-03-19T11:58:38;15.30;62.20
43995;DHT22;51687;52.160;5.298;2023-03-19T12:04:08;15.20;62.00
43995;DHT22;51687;52.160;5.298;2023-03-19T12:06:52;15.20;62.60
43995;DHT22;51687;52.160;5.298;2023-03-19T12:09:26;15.10;62.20
43995;DHT22;51687;52.160;5.298;2023-03-19T12:20:46;15.10;62.60
43995;DHT22;51687;52.160;5.298;2023-03-19T12:26:05;15.20;62.60
43995;DHT22;51687;52.160;5.298;2023-03-19T12:28:45;15.20;62.40
43995;DHT22;51687;52.160;5.298;2023-03-19T12:31:37;15.20;62.30
43995;DHT22;51687;52.160;5.298;2023-03-19T12:34:26;15.30;62.50
43995;DHT22;51687;52.160;5.298;2023-03-19T12:39:26;15.20;62.40
43995;DHT22;51687;52.160;5.298;2023-03-19T12:41:57;15.20;62.80
43995;DHT22;51687;52.160;5.298;2023-03-19T12:44:28;15.20;62.70
43995;DHT22;51687;52.160;5.298;2023-03-19T12:47:05;15.20;62.90
43995;DHT22;51687;52.160;5.298;2023-03-19T12:49:38;15.30;62.60
43995;DHT22;51687;52.160;5.298;2023-03-19T12:52:34;15.30;62.80
43995;DHT22;51687;52.160;5.298;2023-03-19T12:55:13;15.30;62.70
43995;DHT22;51687;52.160;5.298;2023-03-19T12:57:59;15.40;62.40
43995;DHT22;51687;52.160;5.298;2023-03-19T13:03:14;15.40;62.10
43995;DHT22;51687;52.160;5.298;2023-03-19T13:05:51;15.40;61.90
43995;DHT22;51687;52.160;5.298;2023-03-19T13:09:00;15.40;62.10
43995;DHT22;51687;52.160;5.298;2023-03-19T13:11:48;15.40;62.30
43995;DHT22;51687;52.160;5.298;2023-03-19T13:14:37;15.40;61.90
43995;DHT22;51687;52.160;5.298;2023-03-19T13:23:08;15.60;61.80
43995;DHT22;51687;52.160;5.298;2023-03-19T13:25:41;15.60;61.70
43995;DHT22;51687;52.160;5.298;2023-03-19T13:28:24;15.70;61.70
43995;DHT22;51687;52.160;5.298;2023-03-19T13:31:07;15.70;61.50
43995;DHT22;51687;52.160;5.298;2023-03-19T13:33:34;15.60;61.50
43995;DHT22;51687;52.160;5.298;2023-03-19T13:36:06;15.60;61.80
43995;DHT22;51687;52.160;5.298;2023-03-19T13:41:01;15.70;61.70
43995;DHT22;51687;52.160;5.298;2023-03-19T13:46:42;15.70;61.30
43995;DHT22;51687;52.160;5.298;2023-03-19T13:49:31;15.80;61.80
43995;DHT22;51687;52.160;5.298;2023-03-19T13:54:39;15.90;61.20
43995;DHT22;51687;52.160;5.298;2023-03-19T13:59:44;15.90;60.40
43995;DHT22;51687;52.160;5.298;2023-03-19T14:07:41;15.90;60.10
43995;DHT22;51687;52.160;5.298;2023-03-19T14:12:40;16.00;60.00
43995;DHT22;51687;52.160;5.298;2023-03-19T14:25:57;16.20;59.80
43995;DHT22;51687;52.160;5.298;2023-03-19T14:31:47;16.30;59.70
43995;DHT22;51687;52.160;5.298;2023-03-19T14:34:26;16.40;59.80
43995;DHT22;51687;52.160;5.298;2023-03-19T14:37:02;16.40;59.80
43995;DHT22;51687;52.160;5.298;2023-03-19T14:39:39;16.40;59.20
43995;DHT22;51687;52.160;5.298;2023-03-19T14:42:26;16.50;59.20
43995;DHT22;51687;52.160;5.298;2023-03-19T14:48:06;16.60;59.40
43995;DHT22;51687;52.160;5.298;2023-03-19T14:50:49;16.60;59.70
43995;DHT22;51687;52.160;5.298;2023-03-19T14:55:53;16.70;59.20
43995;DHT22;51687;52.160;5.298;2023-03-19T14:58:20;16.70;59.00
43995;DHT22;51687;52.160;5.298;2023-03-19T15:00:53;16.80;58.90
43995;DHT22;51687;52.160;5.298;2023-03-19T15:03:31;16.80;58.40
43995;DHT22;51687;52.160;5.298;2023-03-19T15:06:01;16.80;58.60
43995;DHT22;51687;52.160;5.298;2023-03-19T15:14:11;16.90;57.70
43995;DHT22;51687;52.160;5.298;2023-03-19T15:16:52;16.90;57.90
43995;DHT22;51687;52.160;5.298;2023-03-19T19:45:39;16.90;57.80
43995;DHT22;51687;52.160;5.298;2023-03-19T19:48:15;16.00;58.90
43995;DHT22;51687;52.160;5.298;2023-03-19T19:50:43;16.00;59.30
43995;DHT22;51687;52.160;5.298;2023-03-19T19:53:11;16.00;59.20
43995;DHT22;51687;52.160;5.298;2023-03-19T19:55:40;16.00;59.10
43995;DHT22;51687;52.160;5.298;2023-03-19T19:58:16;16.00;59.00
43995;DHT22;51687;52.160;5.298;2023-03-19T20:00:44;16.00;59.00
43995;DHT22;51687;52.160;5.298;2023-03-19T20:03:29;15.90;59.00
43995;DHT22;51687;52.160;5.298;2023-03-19T20:05:56;15.90;59.20
43995;DHT22;51687;52.160;5.298;2023-03-19T20:08:23;15.90;59.10
43995;DHT22;51687;52.160;5.298;2023-03-19T20:10:52;15.90;59.00
43995;DHT22;51687;52.160;5.298;2023-03-19T20:15:52;15.70;59.20
43995;DHT22;51687;52.160;5.298;2023-03-19T20:18:21;15.70;59.40
43995;DHT22;51687;52.160;5.298;2023-03-19T20:20:49;15.70;59.30
43995;DHT22;51687;52.160;5.298;2023-03-19T20:23:17;15.70;59.40
43995;DHT22;51687;52.160;5.298;2023-03-19T20:25:45;15.70;59.30
43995;DHT22;51687;52.160;5.298;2023-03-19T20:28:20;15.70;58.80
43995;DHT22;51687;52.160;5.298;2023-03-19T20:30:48;15.70;58.80
43995;DHT22;51687;52.160;5.298;2023-03-19T20:33:16;15.70;58.60
43995;DHT22;51687;52.160;5.298;2023-03-19T20:35:44;15.70;58.60
43995;DHT22;51687;52.160;5.298;2023-03-19T20:38:12;15.70;58.30
43995;DHT22;51687;52.160;5.298;2023-03-19T20:40:51;15.70;58.30
43995;DHT22;51687;52.160;5.298;2023-03-19T20:43:28;15.60;58.30
43995;DHT22;51687;52.160;5.298;2023-03-19T20:45:58;15.60;58.50
43995;DHT22;51687;52.160;5.298;2023-03-19T20:48:27;15.50;58.30
43995;DHT22;51687;52.160;5.298;2023-03-19T20:50:54;15.50;58.30
43995;DHT22;51687;52.160;5.298;2023-03-19T20:53:21;15.50;58.50
43995;DHT22;51687;52.160;5.298;2023-03-19T20:55:48;15.50;58.30
43995;DHT22;51687;52.160;5.298;2023-03-19T20:58:30;15.50;58.30
43995;DHT22;51687;52.160;5.298;2023-03-19T21:00:59;15.50;58.20
43995;DHT22;51687;52.160;5.298;2023-03-19T21:03:29;15.50;58.20
43995;DHT22;51687;52.160;5.298;2023-03-19T21:06:17;15.50;58.40
43995;DHT22;51687;52.160;5.298;2023-03-19T21:08:47;15.50;58.60
43995;DHT22;51687;52.160;5.298;2023-03-19T21:11:15;15.50;58.20
43995;DHT22;51687;52.160;5.298;2023-03-19T21:13:50;15.50;58.20
43995;DHT22;51687;52.160;5.298;2023-03-19T21:16:22;15.50;58.10
43995;DHT22;51687;52.160;5.298;2023-03-19T21:18:50;15.40;58.10
43995;DHT22;51687;52.160;5.298;2023-03-19T21:21:19;15.40;58.00
43995;DHT22;51687;52.160;5.298;2023-03-19T21:24:18;15.40;58.00
43995;DHT22;51687;52.160;5.298;2023-03-19T21:26:46;15.30;58.00
43995;DHT22;51687;52.160;5.298;2023-03-19T21:29:19;15.30;58.20
43995;DHT22;51687;52.160;5.298;2023-03-19T21:34:14;15.20;58.40
43995;DHT22;51687;52.160;5.298;2023-03-19T21:36:41;15.20;58.40
43995;DHT22;51687;52.160;5.298;2023-03-19T21:39:08;15.10;58.60
43995;DHT22;51687;52.160;5.298;2023-03-19T21:41:35;15.00;58.90
43995;DHT22;51687;52.160;5.298;2023-03-19T21:44:05;15.00;58.90
43995;DHT22;51687;52.160;5.298;2023-03-19T21:49:10;14.90;58.90
43995;DHT22;51687;52.160;5.298;2023-03-19T21:51:37;14.80;59.40
43995;DHT22;51687;52.160;5.298;2023-03-19T21:54:03;14.80;59.40
43995;DHT22;51687;52.160;5.298;2023-03-19T21:56:42;14.80;59.40
43995;DHT22;51687;52.160;5.298;2023-03-19T21:59:24;14.80;59.70
43995;DHT22;51687;52.160;5.298;2023-03-19T22:01:52;14.80;59.60
43995;DHT22;51687;52.160;5.298;2023-03-19T22:04:19;14.80;59.50
43995;DHT22;51687;52.160;5.298;2023-03-19T22:06:47;14.80;59.40
43995;DHT22;51687;52.160;5.298;2023-03-19T22:09:14;14.80;59.40
43995;DHT22;51687;52.160;5.298;2023-03-19T22:11:42;14.80;59.50
43995;DHT22;51687;52.160;5.298;2023-03-19T22:16:38;14.80;59.70
43995;DHT22;51687;52.160;5.298;2023-03-19T22:19:05;14.70;59.60
43995;DHT22;51687;52.160;5.298;2023-03-19T22:21:33;14.80;59.40
43995;DHT22;51687;52.160;5.298;2023-03-19T22:24:00;14.70;59.60
43995;DHT22;51687;52.160;5.298;2023-03-19T22:26:28;14.70;59.50
43995;DHT22;51687;52.160;5.298;2023-03-19T22:28:57;14.70;59.60
43995;DHT22;51687;52.160;5.298;2023-03-19T22:31:24;14.70;59.70
43995;DHT22;51687;52.160;5.298;2023-03-19T22:33:51;14.70;59.90
43995;DHT22;51687;52.160;5.298;2023-03-19T22:36:18;14.70;59.90
43995;DHT22;51687;52.160;5.298;2023-03-19T22:38:45;14.60;59.90
43995;DHT22;51687;52.160;5.298;2023-03-19T22:41:30;14.60;59.90
43995;DHT22;51687;52.160;5.298;2023-03-19T22:43:58;14.60;59.90
43995;DHT22;51687;52.160;5.298;2023-03-19T22:46:26;14.60;59.80
43995;DHT22;51687;52.160;5.298;2023-03-19T22:48:53;14.60;59.90
43995;DHT22;51687;52.160;5.298;2023-03-19T22:51:23;14.60;60.00
43995;DHT22;51687;52.160;5.298;2023-03-19T22:53:50;14.60;59.80
43995;DHT22;51687;52.160;5.298;2023-03-19T22:56:20;14.50;59.60
43995;DHT22;51687;52.160;5.298;2023-03-19T22:58:47;14.60;59.70
43995;DHT22;51687;52.160;5.298;2023-03-19T23:03:48;14.50;59.40
43995;DHT22;51687;52.160;5.298;2023-03-19T23:06:20;14.40;59.40
43995;DHT22;51687;52.160;5.298;2023-03-19T23:08:56;14.40;59.70
43995;DHT22;51687;52.160;5.298;2023-03-19T23:11:23;14.40;59.70
43995;DHT22;51687;52.160;5.298;2023-03-19T23:13:50;14.40;59.70
43995;DHT22;51687;52.160;5.298;2023-03-19T23:16:21;14.40;59.70
43995;DHT22;51687;52.160;5.298;2023-03-19T23:18:49;14.30;59.70
43995;DHT22;51687;52.160;5.298;2023-03-19T23:21:18;14.40;59.80
43995;DHT22;51687;52.160;5.298;2023-03-19T23:23:45;14.30;60.00
43995;DHT22;51687;52.160;5.298;2023-03-19T23:26:27;14.30;59.90
43995;DHT22;51687;52.160;5.298;2023-03-19T23:28:55;14.30;60.00
43995;DHT22;51687;52.160;5.298;2023-03-19T23:31:23;14.30;60.00
43995;DHT22;51687;52.160;5.298;2023-03-19T23:33:49;14.30;60.00
43995;DHT22;51687;52.160;5.298;2023-03-19T23:36:16;14.40;60.00
43995;DHT22;51687;52.160;5.298;2023-03-19T23:38:43;14.40;59.90
43995;DHT22;51687;52.160;5.298;2023-03-19T23:41:19;14.30;59.70
43995;DHT22;51687;52.160;5.298;2023-03-19T23:43:47;14.30;59.80
43995;DHT22;51687;52.160;5.298;2023-03-19T23:46:14;14.40;59.80
43995;DHT22;51687;52.160;5.298;2023-03-19T23:48:41;14.30;59.70
43995;DHT22;51687;52.160;5.298;2023-03-19T23:51:15;14.30;59.80
43995;DHT22;51687;52.160;5.298;2023-03-19T23:53:43;14.30;60.00
43995;DHT22;51687;52.160;5.298;2023-03-19T23:56:17;14.30;59.90
43995;DHT22;51687;52.160;5.298;2023-03-19T23:58:46;14.30;59.70
